KIX weather

Kansai International Airport
Osaka, Ōsaka Prefecture, Japan

Public forecast

Using degrees Celsius for public forecast. Weather courtesy of forecast.io.

Current aviation weather report (METAR) for Kansai International Airport

Retrieved 2019/12/15 18:30 UTC (0 seconds ago):

RJBB 151830Z AUTO 07009KT 9999 NSC 06/03 Q1027 NOSIG

Aviation forecast (TAF) for Kansai International Airport

Retrieved 2019/12/15 18:00 UTC (10 minutes ago):

TAF RJBB 151705Z 1518/1700 07008KT CAVOK BECMG 1603/1605 31004KT BECMG 1615/1618 08005KT